Погода Развильноена неделю

Ростовская область, Россия

15 - 21 июля
  • 15июля
    Сегодня
    +23°
    +37°
    Ясно и безоблачно
    ВремяПогодаТемператураВлажностьДавлениеВетер, м/сВероятность осадков
    00:00Ясно и безоблачно+23°C21 %750 мм3.6 м/с2 %
    03:00Ясно и безоблачно+21°C27 %750 мм3.6 м/с2 %
    06:00Ясно и безоблачно+21°C33 %750 мм3.6 м/с2 %
    09:00Ясно и безоблачно+30°C26 %750 мм3.8 м/с2 %
    12:00Практически безоблачно+34°C21 %750 мм5.0 м/с2 %
    15:00Ясно и безоблачно+36°C19 %749 мм4.7 м/с2 %
    18:00Небольшая облачность+35°C21 %749 мм4.3 м/с2 %
    21:00Небольшая облачность+29°C27 %749 мм3.6 м/с2 %
  • 16июля
    Вторник
    +24°
    +39°
    Небольшая облачность
    ВремяПогодаТемператураВлажностьДавлениеВетер, м/сВероятность осадков
    00:00Практически безоблачно+27°C28 %749 мм4.0 м/с2 %
    03:00Ясно и безоблачно+25°C32 %749 мм3.2 м/с2 %
    06:00Ясно и безоблачно+25°C38 %750 мм3.0 м/с2 %
    09:00Ясно и безоблачно+33°C28 %750 мм2.7 м/с2 %
    12:00Ясно и безоблачно+37°C20 %750 мм4.8 м/с2 %
    15:00Небольшая облачность+39°C17 %749 мм4.4 м/с2 %
    18:00Практически безоблачно+37°C17 %748 мм3.8 м/с2 %
    21:00Ясно и безоблачно+32°C24 %749 мм4.4 м/с2 %
  • 17июля
    Среда
    +24°
    +39°
    Практически безоблачно
    ВремяПогодаТемператураВлажностьДавлениеВетер, м/сВероятность осадков
    00:00Ясно и безоблачно+30°C29 %749 мм4.6 м/с2 %
    03:00Ясно и безоблачно+26°C34 %750 мм3.4 м/с2 %
    06:00Ясно и безоблачно+26°C37 %750 мм3.3 м/с2 %
    09:00Ясно и безоблачно+34°C27 %751 мм3.8 м/с2 %
    12:00Ясно и безоблачно+38°C19 %750 мм5.3 м/с2 %
    15:00Практически безоблачно+38°C17 %750 мм4.7 м/с2 %
    18:00Небольшая облачность+36°C18 %749 мм5.0 м/с2 %
    21:00Ясно и безоблачно+31°C25 %750 мм3.4 м/с2 %
  • 18июля
    Четверг
    +25°
    +40°
    Практически безоблачно
    ВремяПогодаТемператураВлажностьДавлениеВетер, м/сВероятность осадков
    00:00Ясно и безоблачно+29°C30 %750 мм3.5 м/с2 %
    03:00Ясно и безоблачно+25°C38 %750 мм2.2 м/с2 %
    06:00Ясно и безоблачно+25°C42 %750 мм2.6 м/с2 %
    09:00Ясно и безоблачно+34°C28 %751 мм1.8 м/с2 %
    12:00Ясно и безоблачно+37°C22 %750 мм2.7 м/с2 %
    15:00Практически безоблачно+38°C19 %749 мм2.2 м/с2 %
    18:00Практически безоблачно+37°C19 %749 мм3.1 м/с2 %
    21:00Ясно и безоблачно+31°C29 %749 мм2.2 м/с2 %
Мы используем cookies
Соглашаюсь